sensor_id;sensor_type;location;lat;lon;timestamp;P1;durP1;ratioP1;P2;durP2;ratioP2
23163;SDS011;31429;42.674;23.350;2023-04-24T00:00:35;13.97;;;9.40;;
23163;SDS011;31429;42.674;23.350;2023-04-24T00:01:36;11.18;;;9.27;;
23163;SDS011;31429;42.674;23.350;2023-04-24T00:02:36;12.07;;;9.17;;
23163;SDS011;31429;42.674;23.350;2023-04-24T00:03:40;12.05;;;9.75;;
23163;SDS011;31429;42.674;23.350;2023-04-24T00:04:41;13.02;;;9.23;;
23163;SDS011;31429;42.674;23.350;2023-04-24T00:05:44;10.60;;;8.32;;
23163;SDS011;31429;42.674;23.350;2023-04-24T00:06:45;11.00;;;8.40;;
23163;SDS011;31429;42.674;23.350;2023-04-24T00:07:49;9.98;;;8.40;;
23163;SDS011;31429;42.674;23.350;2023-04-24T00:08:53;13.13;;;8.73;;
23163;SDS011;31429;42.674;23.350;2023-04-24T00:09:55;9.03;;;8.13;;
23163;SDS011;31429;42.674;23.350;2023-04-24T00:10:56;9.60;;;8.43;;
23163;SDS011;31429;42.674;23.350;2023-04-24T00:11:57;11.80;;;8.40;;
23163;SDS011;31429;42.674;23.350;2023-04-24T00:12:57;11.13;;;9.30;;
23163;SDS011;31429;42.674;23.350;2023-04-24T00:13:58;15.87;;;9.40;;
23163;SDS011;31429;42.674;23.350;2023-04-24T00:14:59;10.73;;;8.87;;
23163;SDS011;31429;42.674;23.350;2023-04-24T00:16:00;10.65;;;9.15;;
23163;SDS011;31429;42.674;23.350;2023-04-24T00:17:01;11.17;;;9.30;;
23163;SDS011;31429;42.674;23.350;2023-04-24T00:18:04;10.75;;;9.70;;
23163;SDS011;31429;42.674;23.350;2023-04-24T00:19:05;12.47;;;9.67;;
23163;SDS011;31429;42.674;23.350;2023-04-24T00:20:07;10.48;;;8.80;;
23163;SDS011;31429;42.674;23.350;2023-04-24T00:21:08;12.20;;;9.95;;
23163;SDS011;31429;42.674;23.350;2023-04-24T00:22:08;10.57;;;9.47;;
23163;SDS011;31429;42.674;23.350;2023-04-24T00:23:11;12.95;;;9.82;;
23163;SDS011;31429;42.674;23.350;2023-04-24T00:24:11;11.57;;;10.13;;
23163;SDS011;31429;42.674;23.350;2023-04-24T00:25:13;12.07;;;9.23;;
23163;SDS011;31429;42.674;23.350;2023-04-24T00:26:14;14.25;;;9.80;;
23163;SDS011;31429;42.674;23.350;2023-04-24T00:27:15;13.13;;;10.13;;
23163;SDS011;31429;42.674;23.350;2023-04-24T00:28:16;14.17;;;9.60;;
23163;SDS011;31429;42.674;23.350;2023-04-24T00:29:16;15.87;;;9.77;;
23163;SDS011;31429;42.674;23.350;2023-04-24T00:30:17;12.37;;;10.33;;
23163;SDS011;31429;42.674;23.350;2023-04-24T00:31:18;14.27;;;9.57;;
23163;SDS011;31429;42.674;23.350;2023-04-24T00:32:19;11.73;;;9.30;;
23163;SDS011;31429;42.674;23.350;2023-04-24T00:33:19;11.60;;;9.60;;
23163;SDS011;31429;42.674;23.350;2023-04-24T00:34:20;10.30;;;9.07;;
23163;SDS011;31429;42.674;23.350;2023-04-24T00:35:21;10.77;;;9.60;;
23163;SDS011;31429;42.674;23.350;2023-04-24T00:36:21;12.30;;;9.20;;
23163;SDS011;31429;42.674;23.350;2023-04-24T00:37:22;11.93;;;10.07;;
23163;SDS011;31429;42.674;23.350;2023-04-24T00:38:23;12.03;;;10.00;;
23163;SDS011;31429;42.674;23.350;2023-04-24T00:39:23;10.73;;;8.77;;
23163;SDS011;31429;42.674;23.350;2023-04-24T00:40:26;10.47;;;8.53;;
23163;SDS011;31429;42.674;23.350;2023-04-24T00:41:27;14.80;;;9.52;;
23163;SDS011;31429;42.674;23.350;2023-04-24T00:42:27;12.90;;;9.90;;
23163;SDS011;31429;42.674;23.350;2023-04-24T00:43:28;12.68;;;10.63;;
23163;SDS011;31429;42.674;23.350;2023-04-24T00:44:29;13.77;;;9.83;;
23163;SDS011;31429;42.674;23.350;2023-04-24T00:45:30;12.57;;;10.73;;
23163;SDS011;31429;42.674;23.350;2023-04-24T00:46:31;16.95;;;10.98;;
23163;SDS011;31429;42.674;23.350;2023-04-24T00:47:32;12.63;;;9.70;;
23163;SDS011;31429;42.674;23.350;2023-04-24T00:48:33;15.55;;;10.25;;
23163;SDS011;31429;42.674;23.350;2023-04-24T00:49:34;16.08;;;9.52;;
23163;SDS011;31429;42.674;23.350;2023-04-24T00:50:35;12.13;;;10.00;;
23163;SDS011;31429;42.674;23.350;2023-04-24T00:51:36;12.57;;;10.60;;
23163;SDS011;31429;42.674;23.350;2023-04-24T00:52:37;10.93;;;9.13;;
23163;SDS011;31429;42.674;23.350;2023-04-24T00:53:40;13.57;;;9.75;;
23163;SDS011;31429;42.674;23.350;2023-04-24T00:54:41;11.03;;;9.53;;
23163;SDS011;31429;42.674;23.350;2023-04-24T00:55:43;11.27;;;8.17;;
23163;SDS011;31429;42.674;23.350;2023-04-24T00:56:44;12.68;;;9.68;;
23163;SDS011;31429;42.674;23.350;2023-04-24T00:57:45;12.05;;;9.65;;
23163;SDS011;31429;42.674;23.350;2023-04-24T00:58:46;9.55;;;8.07;;
23163;SDS011;31429;42.674;23.350;2023-04-24T00:59:47;11.47;;;9.40;;
23163;SDS011;31429;42.674;23.350;2023-04-24T01:00:48;9.27;;;8.37;;
23163;SDS011;31429;42.674;23.350;2023-04-24T01:01:53;10.48;;;7.95;;
23163;SDS011;31429;42.674;23.350;2023-04-24T01:02:54;14.57;;;8.67;;
23163;SDS011;31429;42.674;23.350;2023-04-24T01:03:55;9.98;;;7.68;;
23163;SDS011;31429;42.674;23.350;2023-04-24T01:04:58;12.60;;;8.98;;
23163;SDS011;31429;42.674;23.350;2023-04-24T01:05:59;14.30;;;8.97;;
23163;SDS011;31429;42.674;23.350;2023-04-24T01:07:00;12.82;;;9.10;;
23163;SDS011;31429;42.674;23.350;2023-04-24T01:08:01;8.93;;;8.03;;
23163;SDS011;31429;42.674;23.350;2023-04-24T01:09:02;10.87;;;8.20;;
23163;SDS011;31429;42.674;23.350;2023-04-24T01:10:03;9.63;;;8.73;;
23163;SDS011;31429;42.674;23.350;2023-04-24T01:11:06;10.90;;;8.48;;
23163;SDS011;31429;42.674;23.350;2023-04-24T01:12:07;14.35;;;9.68;;
23163;SDS011;31429;42.674;23.350;2023-04-24T01:13:07;10.83;;;8.83;;
23163;SDS011;31429;42.674;23.350;2023-04-24T01:14:08;9.20;;;8.30;;
23163;SDS011;31429;42.674;23.350;2023-04-24T01:15:10;9.20;;;8.13;;
23163;SDS011;31429;42.674;23.350;2023-04-24T01:16:10;11.27;;;8.07;;
23163;SDS011;31429;42.674;23.350;2023-04-24T01:17:11;11.40;;;8.77;;
23163;SDS011;31429;42.674;23.350;2023-04-24T01:18:12;13.82;;;8.90;;
23163;SDS011;31429;42.674;23.350;2023-04-24T01:19:13;11.83;;;8.97;;
23163;SDS011;31429;42.674;23.350;2023-04-24T01:20:15;10.82;;;8.20;;
23163;SDS011;31429;42.674;23.350;2023-04-24T01:21:17;12.63;;;8.52;;
23163;SDS011;31429;42.674;23.350;2023-04-24T01:22:21;9.90;;;8.63;;
23163;SDS011;31429;42.674;23.350;2023-04-24T01:23:22;10.43;;;8.30;;
23163;SDS011;31429;42.674;23.350;2023-04-24T01:24:22;11.70;;;8.53;;
23163;SDS011;31429;42.674;23.350;2023-04-24T01:25:23;11.03;;;8.70;;
23163;SDS011;31429;42.674;23.350;2023-04-24T01:26:26;10.50;;;8.10;;
23163;SDS011;31429;42.674;23.350;2023-04-24T01:27:26;9.57;;;7.67;;
23163;SDS011;31429;42.674;23.350;2023-04-24T01:28:27;8.83;;;7.83;;
23163;SDS011;31429;42.674;23.350;2023-04-24T01:29:28;13.17;;;8.17;;
23163;SDS011;31429;42.674;23.350;2023-04-24T01:30:29;10.67;;;8.13;;
23163;SDS011;31429;42.674;23.350;2023-04-24T01:31:30;11.73;;;8.05;;
23163;SDS011;31429;42.674;23.350;2023-04-24T01:32:32;11.43;;;8.57;;
23163;SDS011;31429;42.674;23.350;2023-04-24T01:33:33;13.10;;;9.57;;
23163;SDS011;31429;42.674;23.350;2023-04-24T01:34:34;12.10;;;8.00;;
23163;SDS011;31429;42.674;23.350;2023-04-24T01:35:35;13.83;;;8.83;;
23163;SDS011;31429;42.674;23.350;2023-04-24T01:36:36;11.45;;;8.68;;
23163;SDS011;31429;42.674;23.350;2023-04-24T01:37:39;13.18;;;8.38;;
23163;SDS011;31429;42.674;23.350;2023-04-24T01:38:40;12.00;;;8.35;;
23163;SDS011;31429;42.674;23.350;2023-04-24T01:39:40;8.50;;;7.60;;
23163;SDS011;31429;42.674;23.350;2023-04-24T01:40:41;10.63;;;9.53;;
23163;SDS011;31429;42.674;23.350;2023-04-24T01:41:42;9.93;;;8.50;;
23163;SDS011;31429;42.674;23.350;2023-04-24T01:42:42;11.27;;;9.30;;
23163;SDS011;31429;42.674;23.350;2023-04-24T01:43:43;12.17;;;8.60;;
23163;SDS011;31429;42.674;23.350;2023-04-24T01:44:44;11.37;;;8.73;;
23163;SDS011;31429;42.674;23.350;2023-04-24T01:45:45;13.93;;;8.73;;
23163;SDS011;31429;42.674;23.350;2023-04-24T01:46:46;10.07;;;8.37;;
23163;SDS011;31429;42.674;23.350;2023-04-24T01:47:46;9.40;;;8.50;;
23163;SDS011;31429;42.674;23.350;2023-04-24T01:48:48;10.23;;;8.30;;
23163;SDS011;31429;42.674;23.350;2023-04-24T01:49:50;10.15;;;8.45;;
23163;SDS011;31429;42.674;23.350;2023-04-24T01:50:51;10.55;;;8.77;;
23163;SDS011;31429;42.674;23.350;2023-04-24T01:51:51;9.70;;;8.43;;
23163;SDS011;31429;42.674;23.350;2023-04-24T01:52:53;9.53;;;8.63;;
23163;SDS011;31429;42.674;23.350;2023-04-24T01:53:54;10.40;;;8.85;;
23163;SDS011;31429;42.674;23.350;2023-04-24T01:54:55;9.73;;;8.45;;
23163;SDS011;31429;42.674;23.350;2023-04-24T01:55:56;11.00;;;8.43;;
23163;SDS011;31429;42.674;23.350;2023-04-24T01:56:57;12.23;;;8.82;;
23163;SDS011;31429;42.674;23.350;2023-04-24T01:58:00;10.52;;;8.75;;
23163;SDS011;31429;42.674;23.350;2023-04-24T01:59:02;12.10;;;8.60;;
23163;SDS011;31429;42.674;23.350;2023-04-24T02:00:04;11.18;;;8.70;;
23163;SDS011;31429;42.674;23.350;2023-04-24T02:01:07;10.00;;;9.00;;
23163;SDS011;31429;42.674;23.350;2023-04-24T02:02:07;11.03;;;8.50;;
23163;SDS011;31429;42.674;23.350;2023-04-24T02:03:08;10.60;;;8.63;;
23163;SDS011;31429;42.674;23.350;2023-04-24T02:04:09;13.43;;;8.77;;
23163;SDS011;31429;42.674;23.350;2023-04-24T02:05:09;9.87;;;8.87;;
23163;SDS011;31429;42.674;23.350;2023-04-24T02:06:11;9.60;;;8.65;;
23163;SDS011;31429;42.674;23.350;2023-04-24T02:07:11;12.80;;;9.00;;
23163;SDS011;31429;42.674;23.350;2023-04-24T02:08:13;11.30;;;8.90;;
23163;SDS011;31429;42.674;23.350;2023-04-24T02:09:14;12.50;;;8.70;;
23163;SDS011;31429;42.674;23.350;2023-04-24T02:10:15;10.10;;;8.67;;
23163;SDS011;31429;42.674;23.350;2023-04-24T02:11:15;10.53;;;9.43;;
23163;SDS011;31429;42.674;23.350;2023-04-24T02:12:16;9.50;;;8.40;;
23163;SDS011;31429;42.674;23.350;2023-04-24T02:13:17;11.60;;;9.68;;
23163;SDS011;31429;42.674;23.350;2023-04-24T02:14:18;13.47;;;9.87;;
23163;SDS011;31429;42.674;23.350;2023-04-24T02:15:18;16.40;;;9.57;;
23163;SDS011;31429;42.674;23.350;2023-04-24T02:16:19;11.90;;;9.67;;
23163;SDS011;31429;42.674;23.350;2023-04-24T02:17:20;9.77;;;8.73;;
23163;SDS011;31429;42.674;23.350;2023-04-24T02:18:21;11.47;;;9.07;;
23163;SDS011;31429;42.674;23.350;2023-04-24T02:19:22;10.70;;;9.32;;
23163;SDS011;31429;42.674;23.350;2023-04-24T02:20:23;10.23;;;9.03;;
23163;SDS011;31429;42.674;23.350;2023-04-24T02:21:24;12.30;;;9.47;;
23163;SDS011;31429;42.674;23.350;2023-04-24T02:22:25;11.25;;;9.02;;
23163;SDS011;31429;42.674;23.350;2023-04-24T02:23:27;10.40;;;9.37;;
23163;SDS011;31429;42.674;23.350;2023-04-24T02:24:28;10.45;;;9.45;;
23163;SDS011;31429;42.674;23.350;2023-04-24T02:25:28;11.77;;;10.00;;
23163;SDS011;31429;42.674;23.350;2023-04-24T02:26:29;12.53;;;9.60;;
23163;SDS011;31429;42.674;23.350;2023-04-24T02:27:31;14.93;;;10.00;;
23163;SDS011;31429;42.674;23.350;2023-04-24T02:28:32;11.53;;;9.73;;
23163;SDS011;31429;42.674;23.350;2023-04-24T02:29:33;12.73;;;9.70;;
23163;SDS011;31429;42.674;23.350;2023-04-24T02:30:34;10.57;;;9.20;;
23163;SDS011;31429;42.674;23.350;2023-04-24T02:31:34;10.67;;;9.57;;
23163;SDS011;31429;42.674;23.350;2023-04-24T02:32:35;12.57;;;10.27;;
23163;SDS011;31429;42.674;23.350;2023-04-24T02:33:36;13.63;;;10.13;;
23163;SDS011;31429;42.674;23.350;2023-04-24T02:34:37;11.53;;;10.23;;
23163;SDS011;31429;42.674;23.350;2023-04-24T02:35:37;12.60;;;9.80;;
23163;SDS011;31429;42.674;23.350;2023-04-24T02:36:38;11.43;;;10.10;;
23163;SDS011;31429;42.674;23.350;2023-04-24T02:37:38;14.17;;;9.37;;
23163;SDS011;31429;42.674;23.350;2023-04-24T02:38:41;13.83;;;9.83;;
23163;SDS011;31429;42.674;23.350;2023-04-24T02:39:41;10.60;;;9.45;;
23163;SDS011;31429;42.674;23.350;2023-04-24T02:40:42;10.90;;;9.70;;
23163;SDS011;31429;42.674;23.350;2023-04-24T02:41:42;10.87;;;9.13;;
23163;SDS011;31429;42.674;23.350;2023-04-24T02:42:43;13.10;;;10.43;;
23163;SDS011;31429;42.674;23.350;2023-04-24T02:43:44;11.57;;;9.70;;
23163;SDS011;31429;42.674;23.350;2023-04-24T02:44:45;10.67;;;9.57;;
23163;SDS011;31429;42.674;23.350;2023-04-24T02:45:46;15.70;;;9.57;;
23163;SDS011;31429;42.674;23.350;2023-04-24T02:46:46;12.13;;;10.00;;
23163;SDS011;31429;42.674;23.350;2023-04-24T02:47:47;11.73;;;9.90;;
23163;SDS011;31429;42.674;23.350;2023-04-24T02:48:47;14.50;;;9.90;;
23163;SDS011;31429;42.674;23.350;2023-04-24T02:49:48;13.03;;;10.27;;
23163;SDS011;31429;42.674;23.350;2023-04-24T02:50:49;12.77;;;9.90;;
23163;SDS011;31429;42.674;23.350;2023-04-24T02:51:50;10.40;;;9.30;;
23163;SDS011;31429;42.674;23.350;2023-04-24T02:52:51;14.43;;;10.73;;
23163;SDS011;31429;42.674;23.350;2023-04-24T02:53:53;15.43;;;10.63;;
23163;SDS011;31429;42.674;23.350;2023-04-24T02:54:53;14.45;;;10.90;;
23163;SDS011;31429;42.674;23.350;2023-04-24T02:55:54;11.23;;;10.13;;
23163;SDS011;31429;42.674;23.350;2023-04-24T02:56:55;15.03;;;10.90;;
23163;SDS011;31429;42.674;23.350;2023-04-24T02:57:56;11.40;;;10.15;;
23163;SDS011;31429;42.674;23.350;2023-04-24T02:58:57;15.33;;;10.67;;
23163;SDS011;31429;42.674;23.350;2023-04-24T02:59:58;13.80;;;10.63;;
23163;SDS011;31429;42.674;23.350;2023-04-24T03:00:58;14.57;;;10.20;;
23163;SDS011;31429;42.674;23.350;2023-04-24T03:02:00;11.63;;;10.43;;
23163;SDS011;31429;42.674;23.350;2023-04-24T03:03:00;12.13;;;9.93;;
23163;SDS011;31429;42.674;23.350;2023-04-24T03:04:01;12.47;;;10.77;;
23163;SDS011;31429;42.674;23.350;2023-04-24T03:05:02;14.20;;;10.53;;
23163;SDS011;31429;42.674;23.350;2023-04-24T03:06:04;11.82;;;10.63;;
23163;SDS011;31429;42.674;23.350;2023-04-24T03:07:05;14.48;;;10.82;;
23163;SDS011;31429;42.674;23.350;2023-04-24T03:08:08;11.65;;;10.45;;
23163;SDS011;31429;42.674;23.350;2023-04-24T03:09:10;13.17;;;10.70;;
23163;SDS011;31429;42.674;23.350;2023-04-24T03:10:11;13.68;;;11.10;;
23163;SDS011;31429;42.674;23.350;2023-04-24T03:11:11;21.73;;;12.37;;
23163;SDS011;31429;42.674;23.350;2023-04-24T03:12:12;13.63;;;11.67;;
23163;SDS011;31429;42.674;23.350;2023-04-24T03:13:12;15.83;;;12.10;;
23163;SDS011;31429;42.674;23.350;2023-04-24T03:14:13;13.87;;;11.57;;
23163;SDS011;31429;42.674;23.350;2023-04-24T03:15:14;13.37;;;11.90;;
23163;SDS011;31429;42.674;23.350;2023-04-24T03:16:14;14.83;;;11.53;;
23163;SDS011;31429;42.674;23.350;2023-04-24T03:17:15;18.70;;;11.57;;
23163;SDS011;31429;42.674;23.350;2023-04-24T03:18:16;19.27;;;11.73;;
23163;SDS011;31429;42.674;23.350;2023-04-24T03:19:16;16.63;;;11.90;;
23163;SDS011;31429;42.674;23.350;2023-04-24T03:20:17;13.97;;;11.43;;
23163;SDS011;31429;42.674;23.350;2023-04-24T03:21:18;13.07;;;11.57;;
23163;SDS011;31429;42.674;23.350;2023-04-24T03:22:18;14.33;;;12.10;;
23163;SDS011;31429;42.674;23.350;2023-04-24T03:23:19;17.03;;;11.63;;
23163;SDS011;31429;42.674;23.350;2023-04-24T03:24:21;16.57;;;11.57;;
23163;SDS011;31429;42.674;23.350;2023-04-24T03:25:22;13.35;;;12.00;;
23163;SDS011;31429;42.674;23.350;2023-04-24T03:26:23;13.07;;;11.67;;
23163;SDS011;31429;42.674;23.350;2023-04-24T03:27:23;17.37;;;11.87;;
23163;SDS011;31429;42.674;23.350;2023-04-24T03:28:24;14.87;;;12.20;;
23163;SDS011;31429;42.674;23.350;2023-04-24T03:29:25;18.97;;;12.40;;
23163;SDS011;31429;42.674;23.350;2023-04-24T03:30:26;17.97;;;12.03;;
23163;SDS011;31429;42.674;23.350;2023-04-24T03:31:26;19.37;;;11.70;;
23163;SDS011;31429;42.674;23.350;2023-04-24T03:32:27;21.83;;;12.37;;
23163;SDS011;31429;42.674;23.350;2023-04-24T03:33:28;16.50;;;13.30;;
23163;SDS011;31429;42.674;23.350;2023-04-24T03:34:28;22.37;;;11.80;;
23163;SDS011;31429;42.674;23.350;2023-04-24T03:35:29;15.07;;;12.03;;
23163;SDS011;31429;42.674;23.350;2023-04-24T03:36:30;15.27;;;12.07;;
23163;SDS011;31429;42.674;23.350;2023-04-24T03:37:31;13.25;;;11.82;;
23163;SDS011;31429;42.674;23.350;2023-04-24T03:38:32;15.13;;;12.23;;
23163;SDS011;31429;42.674;23.350;2023-04-24T03:39:34;14.40;;;11.43;;
23163;SDS011;31429;42.674;23.350;2023-04-24T03:40:34;16.95;;;12.80;;
23163;SDS011;31429;42.674;23.350;2023-04-24T03:41:35;13.87;;;11.17;;
23163;SDS011;31429;42.674;23.350;2023-04-24T03:42:36;16.73;;;11.80;;
23163;SDS011;31429;42.674;23.350;2023-04-24T03:43:37;22.10;;;11.43;;
23163;SDS011;31429;42.674;23.350;2023-04-24T03:44:38;20.40;;;11.90;;
23163;SDS011;31429;42.674;23.350;2023-04-24T03:45:38;18.47;;;11.73;;
23163;SDS011;31429;42.674;23.350;2023-04-24T03:46:39;25.10;;;12.30;;
23163;SDS011;31429;42.674;23.350;2023-04-24T03:47:40;20.17;;;12.03;;
23163;SDS011;31429;42.674;23.350;2023-04-24T03:48:40;17.97;;;11.00;;
23163;SDS011;31429;42.674;23.350;2023-04-24T03:49:41;13.17;;;11.80;;
23163;SDS011;31429;42.674;23.350;2023-04-24T03:50:41;12.77;;;11.43;;
23163;SDS011;31429;42.674;23.350;2023-04-24T03:51:42;16.43;;;10.70;;
23163;SDS011;31429;42.674;23.350;2023-04-24T03:52:43;16.80;;;11.23;;
23163;SDS011;31429;42.674;23.350;2023-04-24T03:53:43;19.33;;;11.27;;
23163;SDS011;31429;42.674;23.350;2023-04-24T03:54:45;13.00;;;11.70;;
23163;SDS011;31429;42.674;23.350;2023-04-24T03:55:46;13.20;;;11.55;;
23163;SDS011;31429;42.674;23.350;2023-04-24T03:56:47;14.67;;;11.13;;
23163;SDS011;31429;42.674;23.350;2023-04-24T03:57:47;14.80;;;12.03;;
23163;SDS011;31429;42.674;23.350;2023-04-24T03:58:48;14.93;;;11.37;;
23163;SDS011;31429;42.674;23.350;2023-04-24T03:59:49;21.57;;;12.33;;
23163;SDS011;31429;42.674;23.350;2023-04-24T04:00:49;20.60;;;11.83;;
23163;SDS011;31429;42.674;23.350;2023-04-24T04:01:51;16.45;;;11.50;;
23163;SDS011;31429;42.674;23.350;2023-04-24T04:02:51;17.50;;;12.23;;
23163;SDS011;31429;42.674;23.350;2023-04-24T04:03:52;14.30;;;11.97;;
23163;SDS011;31429;42.674;23.350;2023-04-24T04:04:53;14.70;;;11.13;;
23163;SDS011;31429;42.674;23.350;2023-04-24T04:05:53;15.37;;;10.97;;
23163;SDS011;31429;42.674;23.350;2023-04-24T04:06:54;15.90;;;11.23;;
23163;SDS011;31429;42.674;23.350;2023-04-24T04:07:55;15.90;;;11.10;;
23163;SDS011;31429;42.674;23.350;2023-04-24T04:08:55;12.97;;;11.27;;
23163;SDS011;31429;42.674;23.350;2023-04-24T04:09:57;13.63;;;11.13;;
23163;SDS011;31429;42.674;23.350;2023-04-24T04:10:58;14.20;;;10.93;;
23163;SDS011;31429;42.674;23.350;2023-04-24T04:11:59;12.90;;;10.70;;
23163;SDS011;31429;42.674;23.350;2023-04-24T04:13:00;16.02;;;10.95;;
23163;SDS011;31429;42.674;23.350;2023-04-24T04:14:01;15.70;;;10.63;;
23163;SDS011;31429;42.674;23.350;2023-04-24T04:15:02;13.13;;;10.60;;
23163;SDS011;31429;42.674;23.350;2023-04-24T04:16:03;14.18;;;10.88;;
23163;SDS011;31429;42.674;23.350;2023-04-24T04:17:04;16.97;;;11.13;;
23163;SDS011;31429;42.674;23.350;2023-04-24T04:18:04;15.00;;;11.73;;
23163;SDS011;31429;42.674;23.350;2023-04-24T04:19:06;13.17;;;11.77;;
23163;SDS011;31429;42.674;23.350;2023-04-24T04:20:07;19.67;;;11.90;;
23163;SDS011;31429;42.674;23.350;2023-04-24T04:21:11;11.55;;;10.20;;
23163;SDS011;31429;42.674;23.350;2023-04-24T04:22:12;14.93;;;10.97;;
23163;SDS011;31429;42.674;23.350;2023-04-24T04:23:13;12.20;;;10.87;;
23163;SDS011;31429;42.674;23.350;2023-04-24T04:24:13;12.83;;;10.27;;
23163;SDS011;31429;42.674;23.350;2023-04-24T04:25:15;16.57;;;11.40;;
23163;SDS011;31429;42.674;23.350;2023-04-24T04:26:19;15.02;;;11.10;;
23163;SDS011;31429;42.674;23.350;2023-04-24T04:27:21;17.95;;;11.40;;
23163;SDS011;31429;42.674;23.350;2023-04-24T04:28:21;19.10;;;11.07;;
23163;SDS011;31429;42.674;23.350;2023-04-24T04:29:22;15.47;;;10.50;;
23163;SDS011;31429;42.674;23.350;2023-04-24T04:30:24;14.90;;;10.68;;
23163;SDS011;31429;42.674;23.350;2023-04-24T04:31:24;13.03;;;8.93;;
23163;SDS011;31429;42.674;23.350;2023-04-24T04:32:25;10.30;;;8.93;;
23163;SDS011;31429;42.674;23.350;2023-04-24T04:33:26;13.90;;;9.60;;
23163;SDS011;31429;42.674;23.350;2023-04-24T04:34:26;15.67;;;7.80;;
23163;SDS011;31429;42.674;23.350;2023-04-24T04:35:27;11.53;;;8.30;;
23163;SDS011;31429;42.674;23.350;2023-04-24T04:36:28;21.63;;;9.90;;
23163;SDS011;31429;42.674;23.350;2023-04-24T04:37:29;11.88;;;10.23;;
23163;SDS011;31429;42.674;23.350;2023-04-24T04:38:30;10.50;;;9.13;;
23163;SDS011;31429;42.674;23.350;2023-04-24T04:39:31;14.60;;;9.37;;
23163;SDS011;31429;42.674;23.350;2023-04-24T04:40:33;15.67;;;10.10;;
23163;SDS011;31429;42.674;23.350;2023-04-24T04:41:33;14.65;;;10.00;;
23163;SDS011;31429;42.674;23.350;2023-04-24T04:42:37;14.60;;;9.18;;
23163;SDS011;31429;42.674;23.350;2023-04-24T04:43:41;14.20;;;10.07;;
23163;SDS011;31429;42.674;23.350;2023-04-24T04:44:42;10.68;;;8.52;;
23163;SDS011;31429;42.674;23.350;2023-04-24T04:45:44;10.68;;;9.57;;
23163;SDS011;31429;42.674;23.350;2023-04-24T04:46:45;13.90;;;10.33;;
23163;SDS011;31429;42.674;23.350;2023-04-24T04:47:47;13.68;;;10.00;;
23163;SDS011;31429;42.674;23.350;2023-04-24T04:48:48;9.75;;;8.73;;
23163;SDS011;31429;42.674;23.350;2023-04-24T04:49:49;12.77;;;8.30;;
23163;SDS011;31429;42.674;23.350;2023-04-24T04:50:51;12.18;;;7.72;;
23163;SDS011;31429;42.674;23.350;2023-04-24T04:51:52;11.90;;;8.30;;
23163;SDS011;31429;42.674;23.350;2023-04-24T04:52:53;11.30;;;7.77;;
23163;SDS011;31429;42.674;23.350;2023-04-24T04:53:53;12.07;;;7.97;;
23163;SDS011;31429;42.674;23.350;2023-04-24T04:54:54;9.83;;;7.73;;
23163;SDS011;31429;42.674;23.350;2023-04-24T04:55:56;8.80;;;7.70;;
23163;SDS011;31429;42.674;23.350;2023-04-24T04:56:56;10.82;;;8.30;;
23163;SDS011;31429;42.674;23.350;2023-04-24T04:57:57;11.90;;;7.30;;
23163;SDS011;31429;42.674;23.350;2023-04-24T04:58:58;9.40;;;7.70;;
23163;SDS011;31429;42.674;23.350;2023-04-24T04:59:59;9.68;;;7.25;;
23163;SDS011;31429;42.674;23.350;2023-04-24T05:01:00;17.50;;;8.20;;
23163;SDS011;31429;42.674;23.350;2023-04-24T05:02:00;12.70;;;7.30;;
23163;SDS011;31429;42.674;23.350;2023-04-24T05:03:01;10.80;;;7.67;;
23163;SDS011;31429;42.674;23.350;2023-04-24T05:04:02;13.55;;;7.95;;
23163;SDS011;31429;42.674;23.350;2023-04-24T05:05:03;8.87;;;7.43;;
23163;SDS011;31429;42.674;23.350;2023-04-24T05:06:04;14.77;;;7.55;;
23163;SDS011;31429;42.674;23.350;2023-04-24T05:07:06;10.80;;;8.05;;
23163;SDS011;31429;42.674;23.350;2023-04-24T05:08:06;11.47;;;7.97;;
23163;SDS011;31429;42.674;23.350;2023-04-24T05:09:07;11.63;;;8.43;;
23163;SDS011;31429;42.674;23.350;2023-04-24T05:10:08;9.53;;;7.60;;
23163;SDS011;31429;42.674;23.350;2023-04-24T05:11:11;10.65;;;7.93;;
23163;SDS011;31429;42.674;23.350;2023-04-24T05:12:11;10.15;;;7.90;;
23163;SDS011;31429;42.674;23.350;2023-04-24T05:13:12;10.77;;;8.13;;
23163;SDS011;31429;42.674;23.350;2023-04-24T05:14:13;12.23;;;7.93;;
23163;SDS011;31429;42.674;23.350;2023-04-24T05:15:13;9.73;;;7.53;;
23163;SDS011;31429;42.674;23.350;2023-04-24T05:16:14;11.23;;;8.37;;
23163;SDS011;31429;42.674;23.350;2023-04-24T05:17:15;10.07;;;7.53;;
23163;SDS011;31429;42.674;23.350;2023-04-24T05:18:15;12.60;;;8.37;;
23163;SDS011;31429;42.674;23.350;2023-04-24T05:19:16;9.40;;;8.40;;
23163;SDS011;31429;42.674;23.350;2023-04-24T05:20:17;12.57;;;8.57;;
23163;SDS011;31429;42.674;23.350;2023-04-24T05:21:18;10.47;;;8.70;;
23163;SDS011;31429;42.674;23.350;2023-04-24T05:22:18;10.73;;;8.67;;
23163;SDS011;31429;42.674;23.350;2023-04-24T05:23:21;12.85;;;8.60;;
23163;SDS011;31429;42.674;23.350;2023-04-24T05:24:21;13.83;;;9.10;;
23163;SDS011;31429;42.674;23.350;2023-04-24T05:25:22;11.97;;;8.37;;
23163;SDS011;31429;42.674;23.350;2023-04-24T05:26:24;12.40;;;8.60;;
23163;SDS011;31429;42.674;23.350;2023-04-24T05:27:24;13.18;;;9.43;;
23163;SDS011;31429;42.674;23.350;2023-04-24T05:28:25;12.93;;;8.57;;
23163;SDS011;31429;42.674;23.350;2023-04-24T05:29:28;10.57;;;9.48;;
23163;SDS011;31429;42.674;23.350;2023-04-24T05:30:30;12.50;;;10.40;;
23163;SDS011;31429;42.674;23.350;2023-04-24T05:31:31;11.63;;;8.73;;
23163;SDS011;31429;42.674;23.350;2023-04-24T05:32:32;11.70;;;8.97;;
23163;SDS011;31429;42.674;23.350;2023-04-24T05:33:33;12.43;;;9.43;;
23163;SDS011;31429;42.674;23.350;2023-04-24T05:34:33;12.83;;;9.73;;
23163;SDS011;31429;42.674;23.350;2023-04-24T05:35:34;11.20;;;8.67;;
23163;SDS011;31429;42.674;23.350;2023-04-24T05:36:34;17.13;;;9.27;;
23163;SDS011;31429;42.674;23.350;2023-04-24T05:37:35;10.73;;;9.23;;
23163;SDS011;31429;42.674;23.350;2023-04-24T05:38:36;15.33;;;10.00;;
23163;SDS011;31429;42.674;23.350;2023-04-24T05:39:36;13.47;;;9.17;;
23163;SDS011;31429;42.674;23.350;2023-04-24T05:40:37;12.70;;;9.50;;
23163;SDS011;31429;42.674;23.350;2023-04-24T05:41:39;10.77;;;9.13;;
23163;SDS011;31429;42.674;23.350;2023-04-24T05:42:40;16.50;;;10.77;;
23163;SDS011;31429;42.674;23.350;2023-04-24T05:43:41;14.53;;;10.47;;
23163;SDS011;31429;42.674;23.350;2023-04-24T05:44:41;14.50;;;10.57;;
23163;SDS011;31429;42.674;23.350;2023-04-24T05:45:42;13.77;;;10.73;;
23163;SDS011;31429;42.674;23.350;2023-04-24T05:46:43;14.00;;;10.87;;
23163;SDS011;31429;42.674;23.350;2023-04-24T05:47:43;14.67;;;10.47;;
23163;SDS011;31429;42.674;23.350;2023-04-24T05:48:44;19.08;;;11.05;;
23163;SDS011;31429;42.674;23.350;2023-04-24T05:49:45;16.90;;;10.40;;
23163;SDS011;31429;42.674;23.350;2023-04-24T05:50:46;16.50;;;11.10;;
23163;SDS011;31429;42.674;23.350;2023-04-24T05:51:48;16.67;;;11.23;;
23163;SDS011;31429;42.674;23.350;2023-04-24T05:52:48;18.23;;;10.93;;
23163;SDS011;31429;42.674;23.350;2023-04-24T05:53:49;16.43;;;10.53;;
23163;SDS011;31429;42.674;23.350;2023-04-24T05:54:50;15.63;;;10.37;;
23163;SDS011;31429;42.674;23.350;2023-04-24T05:55:50;16.43;;;11.07;;